Time;durP1;ratioP1;P1;durP2;ratioP2;P2;SDS_P1;SDS_P2;PMS_P1;PMS_P2;Temp;Humidity;BMP_temperature;BMP_pressure;BME280_temperature;BME280_humidity;BME280_pressure;Samples;Min_cycle;Max_cycle;Signal;HPM_P1;HPM_P2
2024/02/09 00:01:12;;;;;;;11.20;4.77;;;11.20;59.40;;;;;;5070153;28;20184;-87
2024/02/09 00:03:38;;;;;;;12.30;5.23;;;11.20;64.30;;;;;;5063872;28;20428;-86
2024/02/09 00:06:06;;;;;;;19.73;4.90;;;11.10;70.60;;;;;;5058340;28;20655;-86
2024/02/09 00:08:32;;;;;;;21.33;4.67;;;11.10;73.20;;;;;;5074364;28;21992;-85
2024/02/09 00:10:58;;;;;;;7.70;4.07;;;11.10;76.20;;;;;;5069689;28;20432;-86
2024/02/09 00:13:23;;;;;;;11.80;5.50;;;11.10;76.60;;;;;;5067920;28;20790;-86
2024/02/09 00:15:49;;;;;;;10.17;4.33;;;11.10;78.50;;;;;;5067596;28;20474;-85
2024/02/09 00:18:16;;;;;;;17.93;5.03;;;11.10;77.70;;;;;;5070625;28;20205;-85
2024/02/09 00:20:47;;;;;;;11.90;4.57;;;11.10;76.00;;;;;;5072591;28;20216;-86
2024/02/09 00:23:18;;;;;;;12.30;4.27;;;11.10;76.60;;;;;;5072415;28;20441;-86
2024/02/09 00:25:44;;;;;;;13.37;5.20;;;11.10;77.70;;;;;;5069278;28;20446;-87
2024/02/09 00:28:11;;;;;;;18.53;4.80;;;11.10;79.50;;;;;;5072393;28;21047;-86
2024/02/09 00:30:38;;;;;;;10.87;4.47;;;11.10;82.40;;;;;;5073376;28;20426;-86
2024/02/09 00:33:07;;;;;;;13.80;6.00;;;11.10;83.40;;;;;;5070822;28;21066;-85
2024/02/09 00:35:39;;;;;;;13.83;4.80;;;11.00;85.00;;;;;;5067698;28;20477;-86
2024/02/09 00:38:05;;;;;;;14.40;5.90;;;11.00;74.10;;;;;;5065921;28;20451;-85
2024/02/09 00:40:33;;;;;;;28.10;5.27;;;11.00;81.50;;;;;;5073678;28;20419;-86
2024/02/09 00:43:02;;;;;;;14.87;5.90;;;11.00;81.50;;;;;;5072170;28;20264;-87
2024/02/09 00:45:36;;;;;;;14.20;4.30;;;11.00;77.30;;;;;;5063985;28;20546;-88
2024/02/09 00:48:03;;;;;;;16.00;5.07;;;11.00;78.80;;;;;;5058926;28;20458;-87
2024/02/09 00:50:30;;;;;;;11.40;4.63;;;11.00;76.10;;;;;;5062240;28;20435;-87
2024/02/09 00:53:00;;;;;;;12.47;4.97;;;11.00;70.90;;;;;;5065891;28;20434;-87
2024/02/09 00:55:29;;;;;;;12.30;6.50;;;11.00;72.50;;;;;;5070676;28;20431;-87
2024/02/09 00:57:56;;;;;;;13.37;5.27;;;11.00;71.20;;;;;;5068408;28;20475;-87
2024/02/09 01:00:22;;;;;;;20.17;4.90;;;11.00;69.30;;;;;;5065869;28;20927;-87
2024/02/09 01:02:49;;;;;;;16.10;4.30;;;11.00;67.80;;;;;;5068011;28;20442;-87
2024/02/09 01:05:15;;;;;;;14.97;4.90;;;11.00;64.10;;;;;;5069341;28;20435;-86
2024/02/09 01:07:42;;;;;;;8.63;4.50;;;11.00;59.70;;;;;;5067598;28;20417;-88
2024/02/09 01:10:09;;;;;;;10.10;4.87;;;11.00;60.40;;;;;;5073046;28;20436;-86
2024/02/09 02:45:49;;;;;;;4.80;2.53;;;10.90;28.10;;;;;;5072943;28;20742;-85
2024/02/09 03:04:39;;;;;;;4.10;2.60;;;10.80;29.90;;;;;;5065558;28;20466;-86
2024/02/09 03:07:05;;;;;;;5.43;1.93;;;10.80;29.60;;;;;;5062755;28;20911;-86
2024/02/09 03:09:30;;;;;;;3.50;2.03;;;10.80;27.40;;;;;;5068893;28;20193;-86
2024/02/09 03:11:59;;;;;;;2.43;1.80;;;10.90;27.70;;;;;;5066619;28;20343;-86
2024/02/09 03:14:30;;;;;;;3.97;1.90;;;10.90;21.80;;;;;;5060278;28;20204;-86
2024/02/09 03:16:55;;;;;;;9.83;2.87;;;10.90;18.20;;;;;;5062932;28;20862;-86
2024/02/09 03:19:21;;;;;;;7.73;1.97;;;10.90;18.80;;;;;;5068870;28;20431;-85
2024/02/09 03:21:47;;;;;;;4.70;2.13;;;10.90;18.30;;;;;;5068405;28;20605;-86
2024/02/09 03:24:12;;;;;;;4.90;1.80;;;10.90;18.00;;;;;;5068816;28;20173;-86
2024/02/09 03:26:38;;;;;;;3.70;1.77;;;10.90;20.00;;;;;;5068519;28;20189;-86
2024/02/09 03:29:03;;;;;;;5.47;1.50;;;10.90;21.70;;;;;;5072139;28;20201;-86
2024/02/09 03:31:31;;;;;;;7.30;1.90;;;10.90;24.20;;;;;;5069758;28;20203;-86
2024/02/09 03:33:57;;;;;;;2.87;1.60;;;10.90;28.40;;;;;;5061507;28;20211;-86
2024/02/09 03:36:23;;;;;;;3.20;1.60;;;10.80;30.00;;;;;;5064902;28;20499;-86
2024/02/09 03:38:49;;;;;;;4.50;1.70;;;10.80;35.30;;;;;;5068687;28;20220;-86
2024/02/09 03:41:15;;;;;;;4.00;2.03;;;10.80;41.00;;;;;;5069606;28;20547;-85
2024/02/09 03:43:41;;;;;;;4.53;2.50;;;10.80;43.20;;;;;;5066916;28;20524;-86
2024/02/09 03:46:07;;;;;;;3.83;1.60;;;10.80;45.60;;;;;;5074310;28;20430;-86
2024/02/09 03:48:32;;;;;;;3.97;1.70;;;10.80;48.00;;;;;;5059522;28;20508;-86
2024/02/09 03:50:58;;;;;;;4.17;2.40;;;10.80;47.60;;;;;;5062420;28;20562;-85
2024/02/09 03:53:23;;;;;;;5.43;2.00;;;10.80;49.10;;;;;;5068939;28;20243;-85
2024/02/09 03:55:49;;;;;;;4.53;2.10;;;10.80;52.50;;;;;;5066142;28;20631;-85
2024/02/09 03:58:17;;;;;;;3.60;1.80;;;10.70;57.80;;;;;;5067526;28;20208;-86
2024/02/09 04:00:43;;;;;;;2.30;1.57;;;10.70;63.90;;;;;;5066022;28;20247;-85
2024/02/09 04:03:08;;;;;;;3.53;2.77;;;10.70;70.10;;;;;;5067546;28;20434;-85
2024/02/09 04:05:37;;;;;;;2.23;1.80;;;10.70;75.70;;;;;;5068723;28;20461;-86
2024/02/09 04:08:04;;;;;;;4.83;2.10;;;10.70;78.80;;;;;;5065694;28;20201;-85
2024/02/09 04:10:30;;;;;;;3.50;1.83;;;10.70;77.00;;;;;;5060228;28;20813;-85
2024/02/09 04:12:55;;;;;;;8.90;2.37;;;10.70;79.40;;;;;;5055031;28;20432;-86
2024/02/09 04:15:21;;;;;;;4.57;2.30;;;10.70;78.70;;;;;;5067546;28;20188;-85
2024/02/09 04:17:51;;;;;;;2.30;1.63;;;10.70;78.40;;;;;;5066674;28;20249;-85
2024/02/09 04:20:17;;;;;;;4.57;2.00;;;10.70;75.30;;;;;;5072008;28;20629;-86
2024/02/09 04:22:43;;;;;;;4.90;2.03;;;10.80;71.90;;;;;;5061458;28;20527;-85
2024/02/09 04:25:09;;;;;;;3.40;2.10;;;10.80;68.10;;;;;;5053693;28;20181;-86
2024/02/09 04:27:34;;;;;;;3.50;1.90;;;10.80;64.70;;;;;;5068854;28;20212;-85
2024/02/09 04:30:00;;;;;;;4.93;2.23;;;10.80;61.70;;;;;;5065308;28;20205;-86
2024/02/09 04:32:25;;;;;;;2.77;1.60;;;10.80;54.90;;;;;;5061951;28;20181;-84
2024/02/09 04:34:51;;;;;;;2.60;1.63;;;10.80;47.40;;;;;;5062987;28;20658;-85
2024/02/09 04:37:21;;;;;;;3.70;1.60;;;10.90;42.10;;;;;;5068567;28;20565;-85
2024/02/09 04:39:47;;;;;;;4.03;1.67;;;10.90;35.50;;;;;;5066464;28;20193;-85
2024/02/09 04:42:13;;;;;;;4.17;1.70;;;10.90;28.70;;;;;;5071119;28;20808;-85
2024/02/09 04:44:38;;;;;;;2.13;1.50;;;10.90;26.10;;;;;;5058336;28;20438;-85
2024/02/09 04:47:04;;;;;;;2.83;1.40;;;11.00;19.30;;;;;;5053993;28;20186;-85
2024/02/09 04:49:30;;;;;;;2.27;1.47;;;11.00;17.70;;;;;;5067892;28;20439;-85
2024/02/09 04:51:55;;;;;;;2.97;1.40;;;11.00;16.30;;;;;;5069727;28;20189;-85
2024/02/09 04:54:21;;;;;;;3.40;1.60;;;11.00;11.10;;;;;;5066261;28;20197;-84
2024/02/09 04:56:46;;;;;;;3.00;1.67;;;11.00;4.30;;;;;;5065943;28;20212;-85
2024/02/09 04:59:12;;;;;;;3.37;1.47;;;11.10;6.00;;;;;;5063425;28;20214;-84
2024/02/09 05:01:39;;;;;;;1.70;1.50;;;11.10;1.00;;;;;;5067746;28;20234;-84
2024/02/09 05:04:09;;;;;;;3.97;1.30;;;11.10;1.00;;;;;;5067080;28;20185;-84
2024/02/09 05:06:35;;;;;;;1.70;1.20;;;11.10;1.00;;;;;;5059801;28;20449;-85
2024/02/09 05:09:03;;;;;;;4.10;1.60;;;11.10;1.00;;;;;;5059018;28;20949;-85
2024/02/09 05:11:30;;;;;;;2.80;1.90;;;11.20;1.00;;;;;;5069979;28;20797;-84
2024/02/09 05:13:56;;;;;;;4.73;1.90;;;11.20;1.00;;;;;;5065276;28;20523;-85
2024/02/09 05:16:22;;;;;;;1.87;1.30;;;11.20;1.00;;;;;;5069012;28;20561;-85
2024/02/09 05:18:48;;;;;;;5.63;1.63;;;11.20;1.00;;;;;;5066344;28;20521;-85
2024/02/09 05:21:14;;;;;;;3.67;1.50;;;11.20;1.00;;;;;;5059956;28;20442;-84
2024/02/09 05:23:40;;;;;;;6.70;2.70;;;11.20;1.00;;;;;;5065881;28;20208;-85
2024/02/09 05:26:10;;;;;;;3.40;1.40;;;11.30;1.00;;;;;;5066564;28;20497;-85
2024/02/09 05:28:40;;;;;;;3.40;1.30;;;11.30;1.00;;;;;;5060078;28;20454;-85
2024/02/09 05:31:11;;;;;;;3.30;1.50;;;11.30;1.00;;;;;;5058543;28;20787;-85
2024/02/09 05:33:37;;;;;;;2.37;1.30;;;11.30;1.00;;;;;;5061757;28;20426;-85
2024/02/09 05:36:03;;;;;;;2.30;1.60;;;11.40;1.00;;;;;;5068484;28;20459;-85
2024/02/09 05:38:30;;;;;;;2.47;1.43;;;11.40;1.00;;;;;;5064280;28;20201;-84
2024/02/09 05:40:55;;;;;;;3.63;1.87;;;11.40;1.00;;;;;;5057497;28;20429;-85
2024/02/09 05:43:21;;;;;;;2.10;1.10;;;11.40;1.00;;;;;;5063507;28;20933;-85
2024/02/09 05:45:48;;;;;;;6.10;1.57;;;11.40;1.00;;;;;;5074155;28;20201;-85
2024/02/09 05:48:16;;;;;;;5.30;1.80;;;11.50;1.00;;;;;;5069846;28;20204;-84
2024/02/09 05:50:42;;;;;;;6.13;2.10;;;11.50;1.00;;;;;;5064801;28;20485;-85
2024/02/09 05:53:08;;;;;;;6.80;2.30;;;11.50;1.00;;;;;;5071930;28;20434;-85
2024/02/09 05:55:34;;;;;;;2.17;1.50;;;11.50;1.00;;;;;;5066339;28;20608;-85
2024/02/09 05:58:00;;;;;;;7.43;1.70;;;11.50;1.00;;;;;;5076859;28;20225;-85
2024/02/09 06:00:26;;;;;;;5.30;1.60;;;11.40;1.00;;;;;;5072525;28;20431;-84
2024/02/09 06:02:52;;;;;;;3.50;2.17;;;11.40;1.00;;;;;;5070921;28;20432;-85
2024/02/09 06:05:19;;;;;;;2.50;2.00;;;11.40;1.00;;;;;;5068996;28;20446;-84
2024/02/09 06:07:47;;;;;;;5.60;1.87;;;11.40;1.00;;;;;;5077692;28;20450;-84
2024/02/09 06:10:12;;;;;;;7.03;2.27;;;11.40;1.00;;;;;;5078332;28;20427;-84
2024/02/09 06:12:38;;;;;;;3.90;1.60;;;11.30;1.00;;;;;;5069790;28;20500;-84
2024/02/09 06:15:08;;;;;;;5.00;2.87;;;11.30;1.00;;;;;;5070649;28;20572;-84
2024/02/09 06:17:33;;;;;;;4.27;1.63;;;11.30;1.00;;;;;;5076805;28;20208;-84
2024/02/09 06:19:59;;;;;;;3.87;1.90;;;11.30;1.00;;;;;;5076708;28;20502;-84
2024/02/09 06:22:25;;;;;;;5.33;1.60;;;11.30;1.00;;;;;;5072904;28;20223;-84
2024/02/09 06:24:57;;;;;;;2.80;1.90;;;11.30;1.00;;;;;;5069879;28;20170;-84
2024/02/09 06:27:24;;;;;;;5.67;2.00;;;11.30;1.00;;;;;;5075093;28;20483;-84
2024/02/09 06:29:52;;;;;;;3.50;2.57;;;11.30;1.00;;;;;;5068250;28;20447;-84
2024/02/09 06:32:19;;;;;;;4.93;2.07;;;11.30;1.00;;;;;;5075048;28;20447;-84
2024/02/09 06:34:45;;;;;;;2.73;2.10;;;11.30;1.00;;;;;;5068302;28;20439;-84
2024/02/09 06:37:10;;;;;;;9.70;2.60;;;11.30;1.00;;;;;;5061907;28;20467;-84
2024/02/09 06:39:36;;;;;;;4.50;2.17;;;11.30;1.00;;;;;;5064631;28;20477;-84
2024/02/09 06:42:01;;;;;;;5.90;2.20;;;11.30;1.00;;;;;;5076150;28;20679;-85
2024/02/09 06:44:28;;;;;;;5.23;1.97;;;11.30;1.00;;;;;;5071157;28;20181;-84
2024/02/09 06:46:54;;;;;;;4.60;2.00;;;11.30;1.00;;;;;;5064150;28;20209;-84
2024/02/09 06:49:20;;;;;;;12.23;2.20;;;11.40;1.00;;;;;;5059872;28;20443;-83
2024/02/09 06:51:46;;;;;;;4.10;1.97;;;11.40;1.00;;;;;;5066590;28;20427;-84
2024/02/09 06:54:11;;;;;;;6.73;1.90;;;11.40;1.00;;;;;;5072707;28;20183;-84
2024/02/09 06:56:37;;;;;;;5.80;1.83;;;11.50;1.00;;;;;;5074594;28;20568;-84
2024/02/09 06:59:04;;;;;;;5.60;2.33;;;11.50;1.00;;;;;;5069680;28;20197;-85
2024/02/09 07:01:31;;;;;;;7.27;2.50;;;11.50;1.00;;;;;;5058648;28;20194;-84
2024/02/09 07:03:57;;;;;;;6.53;1.97;;;11.60;1.00;;;;;;5063614;28;20573;-85
2024/02/09 07:06:23;;;;;;;9.93;2.77;;;11.60;1.00;;;;;;5073585;28;20435;-83
2024/02/09 07:08:53;;;;;;;5.20;2.00;;;11.70;1.00;;;;;;5071378;28;20467;-84
2024/02/09 07:11:19;;;;;;;5.40;2.53;;;11.70;1.00;;;;;;5074274;28;20311;-84
2024/02/09 07:13:46;;;;;;;7.10;2.33;;;11.70;1.00;;;;;;5072707;28;20443;-84
2024/02/09 07:16:12;;;;;;;8.47;2.60;;;11.70;1.00;;;;;;5067257;28;20574;-84
2024/02/09 07:18:42;;;;;;;4.70;2.70;;;11.70;1.00;;;;;;5073584;28;20910;-85
2024/02/09 07:21:09;;;;;;;11.30;2.20;;;11.70;1.00;;;;;;5072046;28;20456;-84
2024/02/09 07:23:36;;;;;;;3.50;2.03;;;11.70;1.00;;;;;;5071303;28;20444;-84
2024/02/09 07:26:03;;;;;;;9.57;2.63;;;11.70;1.00;;;;;;5068382;28;20518;-84
2024/02/09 07:28:28;;;;;;;5.67;2.33;;;11.70;1.00;;;;;;5074532;28;20454;-84
2024/02/09 07:30:55;;;;;;;3.87;1.93;;;11.70;1.00;;;;;;5072077;28;20818;-84
2024/02/09 07:33:21;;;;;;;5.17;2.10;;;11.70;1.00;;;;;;5075241;28;20214;-84
2024/02/09 07:35:47;;;;;;;4.90;2.50;;;11.70;1.00;;;;;;5079346;28;20470;-84
2024/02/09 07:38:13;;;;;;;4.93;2.17;;;11.80;1.00;;;;;;5076008;28;20475;-84
2024/02/09 07:40:39;;;;;;;7.90;1.90;;;11.80;1.00;;;;;;5073915;28;20447;-85
2024/02/09 07:43:05;;;;;;;7.73;2.30;;;11.80;1.00;;;;;;5077529;28;20189;-85
2024/02/09 07:45:31;;;;;;;3.63;2.03;;;11.80;1.00;;;;;;5076707;28;20526;-84
2024/02/09 07:47:59;;;;;;;5.00;2.30;;;11.70;1.00;;;;;;5076453;28;20495;-85
2024/02/09 07:50:26;;;;;;;7.40;2.83;;;11.70;1.00;;;;;;5076523;28;20465;-84
2024/02/09 07:52:52;;;;;;;9.37;2.60;;;11.80;1.00;;;;;;5067351;28;20942;-84
2024/02/09 07:55:21;;;;;;;4.80;2.73;;;11.80;1.00;;;;;;5077299;28;20936;-84
2024/02/09 07:57:47;;;;;;;3.80;2.13;;;11.80;1.00;;;;;;5077190;28;20472;-84
2024/02/09 08:00:17;;;;;;;6.50;2.50;;;11.80;1.00;;;;;;5075495;28;20420;-84
2024/02/09 08:02:42;;;;;;;4.30;2.60;;;11.90;1.00;;;;;;5089021;28;20438;-84
2024/02/09 08:05:17;;;;;;;6.20;2.93;;;12.00;1.00;;;;;;5075829;28;20468;-84
2024/02/09 08:07:46;;;;;;;8.70;2.30;;;12.00;1.00;;;;;;5073817;28;20282;-84
2024/02/09 08:10:13;;;;;;;7.20;2.37;;;12.00;1.00;;;;;;5074712;28;20476;-84
2024/02/09 08:12:39;;;;;;;4.67;2.10;;;12.10;1.00;;;;;;5067758;28;20823;-84
2024/02/09 08:15:06;;;;;;;8.63;2.57;;;12.10;1.00;;;;;;5072284;28;20516;-83
2024/02/09 08:17:32;;;;;;;4.50;1.73;;;12.20;1.00;;;;;;5070565;28;20478;-84
2024/02/09 08:19:58;;;;;;;7.43;3.27;;;12.20;1.00;;;;;;5072537;28;20445;-84
2024/02/09 08:22:32;;;;;;;4.93;1.90;;;12.30;1.00;;;;;;5072801;28;20447;-84
2024/02/09 08:24:59;;;;;;;4.50;2.50;;;12.30;1.00;;;;;;5071166;28;20644;-84
2024/02/09 08:27:25;;;;;;;4.07;1.97;;;12.40;1.00;;;;;;5069494;28;20483;-85
2024/02/09 08:29:55;;;;;;;5.70;2.30;;;12.40;1.00;;;;;;5074636;28;20455;-84
2024/02/09 08:32:21;;;;;;;7.53;2.30;;;12.60;1.00;;;;;;5072636;28;20449;-83
2024/02/09 08:34:47;;;;;;;4.60;2.07;;;12.90;99.90;;;;;;5071873;28;20492;-83
2024/02/09 08:37:13;;;;;;;5.43;2.30;;;13.20;99.90;;;;;;5071045;28;20792;-83
2024/02/09 08:39:40;;;;;;;6.13;2.57;;;13.50;7.50;;;;;;5069316;28;20489;-83
2024/02/09 08:42:06;;;;;;;4.73;2.30;;;13.70;1.00;;;;;;5060409;28;20226;-84
2024/02/09 08:44:34;;;;;;;7.93;2.13;;;14.00;99.90;;;;;;5070754;28;20437;-81
2024/02/09 08:47:00;;;;;;;2.50;1.63;;;14.10;1.00;;;;;;5070537;28;20446;-83
2024/02/09 08:49:25;;;;;;;4.53;2.17;;;14.10;99.90;;;;;;5073097;28;20932;-83
2024/02/09 08:51:51;;;;;;;3.80;1.60;;;14.10;1.00;;;;;;5067377;28;20177;-83
2024/02/09 08:54:16;;;;;;;4.33;2.10;;;14.00;1.00;;;;;;5050585;28;20185;-83
2024/02/09 08:56:42;;;;;;;5.00;2.10;;;13.90;99.90;;;;;;5069863;28;20223;-83
2024/02/09 08:59:07;;;;;;;5.10;2.10;;;13.90;99.90;;;;;;5064820;28;20204;-81
2024/02/09 09:01:34;;;;;;;6.87;2.17;;;13.90;1.00;;;;;;5072203;28;20181;-83
2024/02/09 09:04:00;;;;;;;3.80;2.17;;;14.00;1.00;;;;;;5075645;28;20181;-81
2024/02/09 09:06:25;;;;;;;4.40;1.93;;;14.00;60.40;;;;;;5078517;28;20504;-83
2024/02/09 09:08:52;;;;;;;6.53;2.00;;;14.10;99.90;;;;;;5070626;28;20235;-83
2024/02/09 09:11:18;;;;;;;4.97;1.73;;;14.30;1.00;;;;;;5072374;28;20173;-83
2024/02/09 09:13:44;;;;;;;6.57;1.90;;;14.50;1.00;;;;;;5073585;28;20431;-83
2024/02/09 09:16:10;;;;;;;3.60;1.70;;;14.70;99.90;;;;;;5073892;28;20442;-83
2024/02/09 09:18:35;;;;;;;3.80;2.00;;;15.00;1.00;;;;;;5071550;28;20201;-83
2024/02/09 09:21:01;;;;;;;3.50;2.17;;;14.90;99.90;;;;;;5074906;28;20481;-83
2024/02/09 09:23:27;;;;;;;6.23;2.43;;;14.80;99.90;;;;;;5075132;28;20182;-83
2024/02/09 09:25:53;;;;;;;3.07;2.00;;;14.80;99.90;;;;;;5073816;28;20182;-83
2024/02/09 09:28:19;;;;;;;4.40;2.10;;;14.70;32.60;;;;;;5073461;28;20228;-83
2024/02/09 09:30:46;;;;;;;3.97;1.93;;;14.70;99.90;;;;;;5073429;28;20485;-83
2024/02/09 09:33:12;;;;;;;4.03;2.17;;;14.70;99.90;;;;;;5069572;28;20649;-82
2024/02/09 09:35:37;;;;;;;3.73;2.00;;;14.60;76.10;;;;;;5074866;28;20537;-83
2024/02/09 09:38:04;;;;;;;7.63;2.50;;;14.60;34.70;;;;;;5072769;28;20478;-83
2024/02/09 09:40:34;;;;;;;8.87;2.57;;;14.50;99.90;;;;;;5075147;28;20181;-83
2024/02/09 09:43:00;;;;;;;4.87;1.60;;;14.50;99.90;;;;;;5070661;28;20925;-83
2024/02/09 09:45:26;;;;;;;7.63;1.73;;;14.40;99.90;;;;;;5074469;28;20439;-82
2024/02/09 09:47:55;;;;;;;6.30;2.33;;;14.30;99.90;;;;;;5072045;28;20660;-83
2024/02/09 09:50:21;;;;;;;3.20;1.80;;;14.30;99.90;;;;;;5063002;28;20454;-83
2024/02/09 09:52:53;;;;;;;4.10;1.60;;;14.20;1.00;;;;;;5070445;28;20480;-83
2024/02/09 09:55:21;;;;;;;3.23;1.80;;;14.20;1.00;;;;;;5061845;28;20472;-83
2024/02/09 09:57:49;;;;;;;6.30;1.90;;;14.30;1.00;;;;;;5070422;28;20467;-82
2024/02/09 10:00:16;;;;;;;4.00;1.40;;;14.30;99.90;;;;;;5065890;28;20509;-81
2024/02/09 10:02:42;;;;;;;6.90;1.70;;;14.30;1.00;;;;;;5068023;28;20457;-83
2024/02/09 10:05:09;;;;;;;3.30;1.30;;;14.30;28.10;;;;;;5071229;28;20434;-83
2024/02/09 10:07:40;;;;;;;3.97;1.73;;;14.20;99.90;;;;;;5067705;28;20740;-83
2024/02/09 10:10:13;;;;;;;7.33;2.40;;;14.10;85.00;;;;;;5068466;28;20442;-83
2024/02/09 10:12:40;;;;;;;2.43;1.70;;;14.10;99.90;;;;;;5061689;28;20438;-83
2024/02/09 10:15:06;;;;;;;3.77;2.40;;;14.10;1.00;;;;;;5068499;28;20545;-83
2024/02/09 10:17:32;;;;;;;4.47;1.83;;;14.10;1.00;;;;;;5068291;28;20474;-83
2024/02/09 10:20:03;;;;;;;4.03;1.67;;;14.10;60.50;;;;;;5069468;28;20448;-83
2024/02/09 10:22:29;;;;;;;10.13;2.13;;;14.30;99.90;;;;;;5071468;28;20646;-84
2024/02/09 10:24:55;;;;;;;6.53;2.10;;;14.40;1.00;;;;;;5070269;28;20446;-83
2024/02/09 10:27:20;;;;;;;6.20;2.00;;;14.50;1.00;;;;;;5069883;28;20217;-83
2024/02/09 10:29:47;;;;;;;4.20;2.00;;;14.50;18.40;;;;;;5071560;28;20435;-83
2024/02/09 10:32:12;;;;;;;4.83;2.27;;;14.60;1.00;;;;;;5073753;28;20196;-83
2024/02/09 10:34:38;;;;;;;3.73;2.00;;;14.60;1.00;;;;;;5079405;28;20492;-83
2024/02/09 10:37:07;;;;;;;3.60;2.30;;;14.60;1.00;;;;;;5066632;28;20383;-80
2024/02/09 10:39:32;;;;;;;3.93;2.77;;;14.60;1.00;;;;;;5076641;28;20184;-82
2024/02/09 10:42:02;;;;;;;9.03;2.33;;;14.60;1.00;;;;;;5077644;28;20431;-83
2024/02/09 10:44:32;;;;;;;2.87;2.00;;;14.60;99.90;;;;;;5076061;28;20177;-83
2024/02/09 10:46:59;;;;;;;3.20;2.50;;;14.70;99.90;;;;;;5079024;28;20793;-83
2024/02/09 10:49:31;;;;;;;4.53;2.00;;;14.70;99.90;;;;;;5072742;28;20450;-82
2024/02/09 10:52:05;;;;;;;4.10;1.60;;;14.70;11.30;;;;;;5069133;28;20817;-82
2024/02/09 10:54:42;;;;;;;3.30;1.77;;;14.70;1.00;;;;;;5073017;28;20444;-82
2024/02/09 10:57:10;;;;;;;8.60;2.37;;;14.70;1.00;;;;;;5072052;28;20466;-81
2024/02/09 10:59:36;;;;;;;4.20;2.10;;;14.70;1.00;;;;;;5076403;28;20466;-82
2024/02/09 11:02:07;;;;;;;3.33;2.00;;;14.70;1.00;;;;;;5080752;28;20431;-80
2024/02/09 11:04:33;;;;;;;6.43;2.63;;;14.70;99.90;;;;;;5073109;28;20450;-84
2024/02/09 11:06:59;;;;;;;3.50;2.20;;;14.70;99.90;;;;;;5081782;28;20757;-83
2024/02/09 11:09:25;;;;;;;2.93;1.70;;;14.80;99.90;;;;;;5076067;28;20454;-81
2024/02/09 11:11:50;;;;;;;3.40;1.93;;;14.80;99.90;;;;;;5081137;28;20443;-82
2024/02/09 11:14:16;;;;;;;4.20;2.17;;;14.90;99.90;;;;;;5077798;28;20204;-83
2024/02/09 11:16:48;;;;;;;3.87;2.23;;;15.00;36.50;;;;;;5074461;28;20213;-83
2024/02/09 11:19:17;;;;;;;5.87;1.90;;;15.00;1.00;;;;;;5072106;28;20566;-81
2024/02/09 11:21:53;;;;;;;6.20;2.10;;;15.00;1.00;;;;;;5074422;28;20448;-82
2024/02/09 11:24:20;;;;;;;4.93;1.90;;;15.00;1.00;;;;;;5074225;28;20454;-82
2024/02/09 11:26:49;;;;;;;3.30;1.67;;;15.00;1.00;;;;;;5072427;28;20460;-82
2024/02/09 11:29:16;;;;;;;3.30;2.10;;;15.00;1.00;;;;;;5074416;28;20791;-82
2024/02/09 11:31:42;;;;;;;3.30;1.90;;;14.90;1.00;;;;;;5075180;28;20439;-82
2024/02/09 11:34:08;;;;;;;6.40;1.77;;;14.90;1.00;;;;;;5070067;28;20518;-82
2024/02/09 11:36:34;;;;;;;2.40;1.70;;;14.90;1.00;;;;;;5065875;28;20558;-82
2024/02/09 11:38:59;;;;;;;3.03;2.00;;;14.80;1.00;;;;;;5074589;28;20197;-81
2024/02/09 11:41:28;;;;;;;5.03;2.10;;;14.90;1.00;;;;;;5068442;28;20181;-82
2024/02/09 11:43:53;;;;;;;6.93;2.07;;;14.90;1.00;;;;;;5073386;28;20536;-83
2024/02/09 11:46:20;;;;;;;3.33;1.53;;;14.90;1.00;;;;;;5064230;28;20578;-83
2024/02/09 11:48:46;;;;;;;3.87;1.60;;;14.90;1.00;;;;;;5068720;28;20209;-82
2024/02/09 11:51:20;;;;;;;7.47;1.83;;;14.80;1.00;;;;;;5071190;28;20431;-83
2024/02/09 11:53:50;;;;;;;4.10;1.73;;;14.90;1.00;;;;;;5071108;28;20424;-83
2024/02/09 11:56:17;;;;;;;2.93;1.83;;;14.90;1.00;;;;;;5076433;28;20420;-83
2024/02/09 11:58:44;;;;;;;2.97;1.50;;;15.00;1.00;;;;;;5066584;28;20452;-83
2024/02/09 12:01:10;;;;;;;3.20;1.83;;;15.10;1.00;;;;;;5068313;28;20431;-83
2024/02/09 12:03:36;;;;;;;3.80;1.53;;;15.10;1.00;;;;;;5069921;28;20437;-83
2024/02/09 12:06:02;;;;;;;4.03;2.00;;;15.10;1.00;;;;;;5072147;28;20538;-82
2024/02/09 12:08:29;;;;;;;3.07;1.47;;;15.00;1.00;;;;;;5075987;28;20206;-83
2024/02/09 12:10:56;;;;;;;5.03;2.30;;;15.10;1.00;;;;;;5071800;28;20439;-83
2024/02/09 12:13:22;;;;;;;7.50;2.40;;;15.10;1.00;;;;;;5075814;28;20475;-84
2024/02/09 12:15:49;;;;;;;4.20;2.20;;;15.10;1.00;;;;;;5074515;28;20432;-83
2024/02/09 12:18:15;;;;;;;5.10;2.00;;;15.20;1.00;;;;;;5073710;28;20517;-83
2024/02/09 12:20:43;;;;;;;4.43;2.20;;;15.20;99.90;;;;;;5073095;28;20440;-83
2024/02/09 12:23:09;;;;;;;3.57;2.10;;;15.20;99.90;;;;;;5072310;28;20433;-84
2024/02/09 12:25:37;;;;;;;4.93;2.57;;;15.20;99.90;;;;;;5075063;28;20433;-83
2024/02/09 12:28:04;;;;;;;3.63;2.10;;;15.30;99.90;;;;;;5073108;28;20483;-83
2024/02/09 12:30:29;;;;;;;6.03;2.40;;;15.40;99.90;;;;;;5072122;28;20442;-83
2024/02/09 12:32:59;;;;;;;2.97;1.43;;;15.40;99.90;;;;;;5073617;28;20453;-84
2024/02/09 12:35:29;;;;;;;4.30;2.17;;;15.50;99.90;;;;;;5071847;28;20183;-84
2024/02/09 12:38:01;;;;;;;4.90;2.57;;;15.50;99.90;;;;;;5072127;28;20479;-83
2024/02/09 12:40:26;;;;;;;3.63;2.27;;;15.40;99.90;;;;;;5069271;28;20433;-83
2024/02/09 12:42:55;;;;;;;6.60;1.83;;;15.40;99.90;;;;;;5072083;28;20524;-84
2024/02/09 12:45:31;;;;;;;4.80;2.00;;;15.40;99.90;;;;;;5071230;28;20594;-84
2024/02/09 12:47:57;;;;;;;3.73;2.10;;;15.50;99.90;;;;;;5068969;28;20450;-84
2024/02/09 12:50:26;;;;;;;5.20;2.13;;;15.50;96.40;;;;;;5071205;28;20486;-84
2024/02/09 12:52:52;;;;;;;4.00;1.80;;;15.40;54.40;;;;;;5067244;28;20436;-84
2024/02/09 12:55:21;;;;;;;8.57;1.93;;;15.40;99.90;;;;;;5069970;28;20456;-84
2024/02/09 12:57:48;;;;;;;3.07;2.20;;;15.40;48.70;;;;;;5070617;28;20210;-85
2024/02/09 13:00:14;;;;;;;3.93;2.20;;;15.30;99.90;;;;;;5068554;28;20439;-82
2024/02/09 13:02:40;;;;;;;2.73;1.83;;;15.30;99.90;;;;;;5065534;28;20807;-83
2024/02/09 13:05:06;;;;;;;5.17;2.00;;;15.30;99.90;;;;;;5068195;28;20443;-82
2024/02/09 13:07:34;;;;;;;5.60;1.67;;;15.20;99.90;;;;;;5065528;28;20443;-84
2024/02/09 13:10:00;;;;;;;5.10;2.10;;;15.20;99.90;;;;;;5072191;28;20848;-83
2024/02/09 13:12:26;;;;;;;20.23;4.23;;;15.10;99.90;;;;;;5072018;28;20501;-83
2024/02/09 13:14:52;;;;;;;10.47;3.03;;;15.00;99.90;;;;;;5073659;28;20415;-83
2024/02/09 13:17:19;;;;;;;3.37;2.23;;;14.90;99.90;;;;;;5074680;28;20471;-83
2024/02/09 13:19:45;;;;;;;10.73;2.47;;;14.80;99.90;;;;;;5072142;28;20522;-83
2024/02/09 13:22:11;;;;;;;8.77;2.33;;;14.70;99.90;;;;;;5070534;28;20464;-82
2024/02/09 13:24:42;;;;;;;3.80;2.03;;;14.80;99.90;;;;;;5074557;28;20435;-83
2024/02/09 13:27:12;;;;;;;3.10;1.93;;;15.00;99.90;;;;;;5069476;28;20451;-83
2024/02/09 13:29:38;;;;;;;4.63;2.40;;;15.10;99.90;;;;;;5070829;28;20442;-82
2024/02/09 13:32:04;;;;;;;3.80;2.20;;;15.20;99.90;;;;;;5072158;28;20440;-81
2024/02/09 13:34:30;;;;;;;5.10;1.70;;;15.20;99.90;;;;;;5069277;28;20476;-82
2024/02/09 13:36:56;;;;;;;4.90;2.40;;;15.30;99.90;;;;;;5072208;28;20857;-83
2024/02/09 13:39:22;;;;;;;5.63;2.10;;;15.20;99.90;;;;;;5074204;28;20575;-83
2024/02/09 13:41:47;;;;;;;4.20;2.10;;;15.20;99.90;;;;;;5077153;28;20436;-84
2024/02/09 13:44:15;;;;;;;4.20;1.90;;;15.20;99.90;;;;;;5073221;28;20655;-82
2024/02/09 13:46:42;;;;;;;3.60;1.73;;;15.20;99.90;;;;;;5068170;28;21766;-82
2024/02/09 13:49:08;;;;;;;7.20;1.80;;;15.30;99.90;;;;;;5075029;28;20455;-83
2024/02/09 13:51:34;;;;;;;5.57;1.47;;;15.30;99.90;;;;;;5073141;28;20468;-83
2024/02/09 13:54:02;;;;;;;7.10;2.03;;;15.30;99.90;;;;;;5053196;28;20209;-83
2024/02/09 13:56:28;;;;;;;2.53;1.40;;;15.30;99.90;;;;;;5057655;28;20683;-85
2024/02/09 13:58:54;;;;;;;2.90;1.80;;;15.30;99.90;;;;;;5057625;28;20455;-82
2024/02/09 14:01:21;;;;;;;5.47;1.93;;;15.30;99.90;;;;;;5059639;28;20811;-83
2024/02/09 14:03:47;;;;;;;2.40;1.50;;;15.30;99.90;;;;;;5062300;28;20436;-83
2024/02/09 14:06:12;;;;;;;10.23;2.40;;;15.30;99.90;;;;;;5063444;28;20444;-84
2024/02/09 14:08:38;;;;;;;6.67;1.63;;;15.30;99.90;;;;;;5060087;28;20830;-84
2024/02/09 14:11:04;;;;;;;6.70;1.70;;;15.20;99.90;;;;;;5061062;28;20186;-83
2024/02/09 14:13:34;;;;;;;4.70;1.70;;;15.20;99.90;;;;;;5062674;28;20432;-84
2024/02/09 14:16:00;;;;;;;4.07;2.27;;;15.10;99.90;;;;;;5061264;28;20535;-83
2024/02/09 14:18:26;;;;;;;4.53;2.33;;;15.10;99.90;;;;;;5058689;28;20476;-83
2024/02/09 14:20:53;;;;;;;14.27;3.60;;;15.10;99.90;;;;;;5058425;28;20479;-83
2024/02/09 14:23:18;;;;;;;10.70;2.37;;;15.00;99.90;;;;;;5063451;28;20508;-82
2024/02/09 14:25:44;;;;;;;4.70;1.70;;;15.00;99.90;;;;;;5053566;28;20515;-82
2024/02/09 14:28:10;;;;;;;8.53;3.43;;;15.00;99.90;;;;;;5055241;28;20210;-83
2024/02/09 14:30:36;;;;;;;4.03;2.60;;;15.00;99.90;;;;;;5055583;28;20263;-82
2024/02/09 14:33:03;;;;;;;38.00;6.67;;;14.90;99.90;;;;;;5062026;28;20436;-82
2024/02/09 14:35:28;;;;;;;5.57;2.00;;;14.90;99.90;;;;;;5061541;28;20443;-81
2024/02/09 14:37:54;;;;;;;4.23;1.63;;;14.90;99.90;;;;;;5057809;28;20335;-82